Map

Track Data

SID SEASON NUMBER BASIN SUBBASIN NAME ISO_TIME NATURE LAT LON WMO_WIND WMO_PRES WMO_AGENCY TRACK_TYPE DIST2LAND LANDFALL IFLAG USA_AGENCY USA_ATCF_ID USA_LAT USA_LON USA_RECORD USA_STATUS USA_WIND USA_PRES USA_SSHS USA_R34_NE USA_R34_SE USA_R34_SW USA_R34_NW USA_R50_NE USA_R50_SE USA_R50_SW USA_R50_NW USA_R64_NE USA_R64_SE USA_R64_SW USA_R64_NW USA_POCI USA_ROCI USA_RMW USA_EYE TOKYO_LAT TOKYO_LON TOKYO_GRADE TOKYO_WIND TOKYO_PRES TOKYO_R50_DIR TOKYO_R50_LONG TOKYO_R50_SHORT TOKYO_R30_DIR TOKYO_R30_LONG TOKYO_R30_SHORT TOKYO_LAND CMA_LAT CMA_LON CMA_CAT CMA_WIND CMA_PRES HKO_LAT HKO_LON HKO_CAT HKO_WIND HKO_PRES NEWDELHI_LAT NEWDELHI_LON NEWDELHI_GRADE NEWDELHI_WIND NEWDELHI_PRES NEWDELHI_CI NEWDELHI_DP NEWDELHI_POCI REUNION_LAT REUNION_LON REUNION_TYPE REUNION_WIND REUNION_PRES REUNION_TNUM REUNION_CI REUNION_RMW REUNION_R34_NE REUNION_R34_SE REUNION_R34_SW REUNION_R34_NW REUNION_R50_NE REUNION_R50_SE REUNION_R50_SW REUNION_R50_NW REUNION_R64_NE REUNION_R64_SE REUNION_R64_SW REUNION_R64_NW BOM_LAT BOM_LON BOM_TYPE BOM_WIND BOM_PRES BOM_TNUM BOM_CI BOM_RMW BOM_R34_NE BOM_R34_SE BOM_R34_SW BOM_R34_NW BOM_R50_NE BOM_R50_SE BOM_R50_SW BOM_R50_NW BOM_R64_NE BOM_R64_SE BOM_R64_SW BOM_R64_NW BOM_ROCI BOM_POCI BOM_EYE BOM_POS_METHOD BOM_PRES_METHOD NADI_LAT NADI_LON NADI_CAT NADI_WIND NADI_PRES WELLINGTON_LAT WELLINGTON_LON WELLINGTON_WIND WELLINGTON_PRES DS824_LAT DS824_LON DS824_STAGE DS824_WIND DS824_PRES TD9636_LAT TD9636_LON TD9636_STAGE TD9636_WIND TD9636_PRES TD9635_LAT TD9635_LON TD9635_WIND TD9635_PRES TD9635_ROCI NEUMANN_LAT NEUMANN_LON NEUMANN_CLASS NEUMANN_WIND NEUMANN_PRES MLC_LAT MLC_LON MLC_CLASS MLC_WIND MLC_PRES USA_GUST BOM_GUST BOM_GUST_PER REUNION_GUST REUNION_GUST_PER USA_SEAHGT USA_SEARAD_NE USA_SEARAD_SE USA_SEARAD_SW USA_SEARAD_NW STORM_SPEED STORM_DIR
1948217N30139 1948 48 WP MM BERTHA 1948-08-04 06:00:00 TS 30.3000 138.800 main 446 444 O________O_O__ jtwc_wp WP081948 30.3000 138.800 45 0 30.3000 138.800 TC 45 30.3000 138.800 45 999 180 12 67
1948217N30139 1948 48 WP MM BERTHA 1948-08-04 09:00:00 TS 30.5409 139.452 main 461 436 P________P_P__ WP081948 30.5409 139.452 47 0 30.5409 139.452 TC 47 30.5409 139.452 47 997 210 11 64
1948217N30139 1948 48 WP MM BERTHA 1948-08-04 12:00:00 TS 30.8000 140.000 main 438 414 O________OOO__ jtwc_wp WP081948 30.8000 140.000 50 0 30.8000 140.000 TC 50 30.8000 140.000 2 50 30.8000 140.000 50 995 240 10 54
1948217N30139 1948 48 WP MM BERTHA 1948-08-04 15:00:00 TS 31.0951 140.353 main 417 394 P________PPP__ WP081948 31.0921 140.368 55 0 31.0921 140.368 TC 55 31.1131 140.267 2 55 31.0921 140.368 55 992 240 8 40
1948217N30139 1948 48 WP MM BERTHA 1948-08-04 18:00:00 TS 31.4041 140.584 main 394 364 O________OPO__ jtwc_wp WP081948 31.4000 140.600 60 0 31.4000 140.600 TC 60 31.4207 140.518 2 60 31.4000 140.600 60 990 240 7 30
1948217N30139 1948 48 WP MM BERTHA 1948-08-04 21:00:00 TS 31.7100 140.774 main 366 336 P________PPP__ WP081948 31.7074 140.788 65 1 31.7074 140.788 TC 65 31.7179 140.735 2 65 31.7074 140.788 65 987 240 7 24
1948217N30139 1948 48 WP MM BERTHA 1948-08-05 00:00:00 TS 32.0000 140.900 main 336 307 O________OOO__ jtwc_wp WP081948 32.0000 140.900 70 1 32.0000 140.900 TC 70 32.0000 140.900 3 70 32.0000 140.900 70 985 240 6 17
1948217N30139 1948 48 WP MM BERTHA 1948-08-05 03:00:00 TS 32.2644 140.974 main 307 286 P________PPP__ WP081948 32.2650 140.965 67 1 32.2650 140.965 TC 67 32.2625 141.001 3 67 32.2650 140.965 67 980 240 5 11
1948217N30139 1948 48 WP MM BERTHA 1948-08-05 06:00:00 TS 32.5005 141.013 main 286 265 O________OPO__ jtwc_wp WP081948 32.5000 141.000 65 1 32.5000 141.000 TC 65 32.5022 141.054 3 65 32.5000 141.000 65 976 240 5 8
1948217N30139 1948 48 WP MM BERTHA 1948-08-05 09:00:00 TS 32.7208 141.057 main 269 248 P________PPP__ WP081948 32.7225 141.050 62 0 32.7225 141.050 TC 62 32.7158 141.079 3 62 32.7225 141.050 62 981 240 4 10
1948217N30139 1948 48 WP MM BERTHA 1948-08-05 12:00:00 TS 32.9000 141.100 main 248 238 O________OOO__ jtwc_wp WP081948 32.9000 141.100 60 0 32.9000 141.100 TC 60 32.9000 141.100 2 60 32.9000 141.100 60 986 240 3 15
1948217N30139 1948 48 WP MM BERTHA 1948-08-05 15:00:00 TS 33.0119 141.149 main 238 233 P________PPP__ WP081948 33.0075 141.150 52 0 33.0075 141.150 TC 52 33.0253 141.146 2 56 33.0075 141.150 52 988 240 2 20
1948217N30139 1948 48 WP MM BERTHA 1948-08-05 18:00:00 TS 33.1069 141.198 main 233 224 O________OPO__ jtwc_wp WP081948 33.1000 141.200 45 0 33.1000 141.200 TC 45 33.1275 141.193 2 52 33.1000 141.200 45 991 240 2 19
1948217N30139 1948 48 WP MM BERTHA 1948-08-05 21:00:00 TS 33.2421 141.248 main 224 210 P________PPP__ WP081948 33.2425 141.250 45 0 33.2425 141.250 TC 45 33.2409 141.243 2 48 33.2425 141.250 45 992 210 3 17
1948217N30139 1948 48 WP MM BERTHA 1948-08-06 00:00:00 TS 33.4000 141.300 main 210 202 O________OOO__ jtwc_wp WP081948 33.4000 141.300 45 0 33.4000 141.300 TC 45 33.4000 141.300 2 45 33.4000 141.300 45 994 180 3 15
1948217N30139 1948 48 WP MM BERTHA 1948-08-06 03:00:00 TS 33.5363 141.348 main 202 190 P________PPP__ WP081948 33.5050 141.343 42 0 33.5050 141.343 TC 42 33.6300 141.366 2 43 33.5050 141.343 42 995 150 4 15
1948217N30139 1948 48 WP MM BERTHA 1948-08-06 06:00:00 TS 33.7440 141.408 main 190 158 O________OPO__ jtwc_wp WP081948 33.7000 141.400 40 0 33.7000 141.400 TC 40 33.9201 141.439 2 42 33.7000 141.400 40 996 120 6 12
1948217N30139 1948 48 WP MM BERTHA 1948-08-06 09:00:00 TS 34.1193 141.496 main 158 128 P________PPP__ WP081948 34.0975 141.492 40 0 34.0975 141.492 TC 40 34.2501 141.518 2 41 34.0975 141.492 40 997 120 9 10
1948217N30139 1948 48 WP MM BERTHA 1948-08-06 12:00:00 TS 34.6000 141.600 main 128 98 O________OOO__ jtwc_wp WP081948 34.6000 141.600 40 0 34.6000 141.600 TC 40 34.6000 141.600 2 40 34.6000 141.600 40 998 120 10 10
1948217N30139 1948 48 WP MM BERTHA 1948-08-06 15:00:00 TS 35.1050 141.702 main 98 81 P________P_P__ WP081948 35.1050 141.702 37 0 35.1050 141.702 TC 37 2 35.1050 141.702 37 999 120 10 9
1948217N30139 1948 48 WP MM BERTHA 1948-08-06 18:00:00 TS 35.6000 141.800 main 81 O________O_O__ jtwc_wp WP081948 35.6000 141.800 35 0 35.6000 141.800 TC 35 2 35.6000 141.800 35 1000 120 10 10

Digital Typhoon Data and Search

About IBTrACS Database

This database is a web-friendly format of International Best Track Archive for Climate Stewardship (IBTrACS), a global best track data archive curated by NOAA dating back to 1842.

Updated: 2021-12-06